Terminal Aerodrome Forecast
Issued by NWS Sioux Falls, SD

Home | Current Version | Previous Version | Text Only | Print | Product List | Glossary On
Versions: 1 2 3 4 5 6 7 8 9 10 11 12 13 14 15 16 17 18
000
FTUS43 KFSD 301120
TAFSUX
TAF
KSUX 301120Z 3012/3112 VRB03KT P6SM VCTS OVC120CB
     FM301600 VRB04KT P6SM VCTS SCT040CB SCT150
     FM310100 VRB03KT P6SM SCT040=

USA.gov is the U.S. government's official web portal to all federal, state and local government web resources and services.